Time;durP1;ratioP1;P1;durP2;ratioP2;P2;SDS_P1;SDS_P2;PMS_P1;PMS_P2;Temp;Humidity;BMP_temperature;BMP_pressure;BME280_temperature;BME280_humidity;BME280_pressure;Samples;Min_cycle;Max_cycle;Signal;HPM_P1;HPM_P2
2021/04/26 07:38:12;;;;;;;6.07;2.47;;;9.10;52.40;;;;;;5282285;22;806254;-70
2021/04/26 07:40:38;;;;;;;7.35;2.58;;;9.20;51.90;;;;;;5071404;28;20036;-71
2021/04/26 07:43:04;;;;;;;6.00;2.63;;;9.30;52.00;;;;;;5071704;28;20029;-70
2021/04/26 07:45:29;;;;;;;4.30;2.33;;;9.30;51.70;;;;;;5069912;28;20027;-71
2021/04/26 07:47:57;;;;;;;6.70;2.85;;;9.30;51.20;;;;;;5069914;28;20618;-72
2021/04/26 07:50:23;;;;;;;4.35;2.40;;;9.30;51.50;;;;;;5072699;28;20441;-73
2021/04/26 07:52:48;;;;;;;5.43;2.45;;;9.30;51.40;;;;;;5054135;28;20032;-72
2021/04/26 07:55:14;;;;;;;4.85;2.70;;;9.40;51.90;;;;;;5048541;28;20025;-72
2021/04/26 07:57:40;;;;;;;6.05;3.05;;;9.50;51.90;;;;;;5048926;28;20060;-72
2021/04/26 08:00:08;;;;;;;6.82;2.42;;;9.50;50.80;;;;;;5051321;28;20033;-72
2021/04/26 08:02:34;;;;;;;7.05;2.60;;;9.60;50.90;;;;;;5052018;28;20025;-71
2021/04/26 08:05:00;;;;;;;7.28;2.97;;;9.70;51.00;;;;;;5050730;28;20099;-73
2021/04/26 08:07:26;;;;;;;8.65;2.75;;;9.70;51.50;;;;;;5050980;28;20037;-73
2021/04/26 08:09:51;;;;;;;3.55;2.55;;;9.70;50.70;;;;;;5051951;28;20083;-73
2021/04/26 08:12:18;;;;;;;4.22;2.60;;;9.80;50.30;;;;;;5051273;28;20029;-73
2021/04/26 08:14:44;;;;;;;4.32;2.40;;;9.80;50.50;;;;;;5050920;28;20116;-73
2021/04/26 08:17:10;;;;;;;6.85;2.78;;;9.90;50.30;;;;;;5051207;28;20123;-73
2021/04/26 08:19:36;;;;;;;7.78;2.92;;;9.90;50.20;;;;;;5051701;28;20028;-74
2021/04/26 08:22:01;;;;;;;13.13;3.00;;;9.90;50.40;;;;;;5050635;28;20051;-73
2021/04/26 08:24:28;;;;;;;7.90;3.10;;;9.90;50.30;;;;;;5051361;28;20057;-73
2021/04/26 08:26:55;;;;;;;4.90;2.42;;;9.90;49.90;;;;;;5051900;28;20021;-74
2021/04/26 08:29:21;;;;;;;6.97;2.80;;;10.00;50.00;;;;;;5051192;28;20119;-74
2021/04/26 08:31:47;;;;;;;5.93;2.53;;;9.90;50.40;;;;;;5048940;28;20116;-72
2021/04/26 08:34:13;;;;;;;5.35;2.50;;;10.00;51.00;;;;;;5050874;28;20100;-73
2021/04/26 08:36:39;;;;;;;5.55;2.63;;;10.10;51.60;;;;;;5048414;28;20033;-73
2021/04/26 08:39:05;;;;;;;5.78;2.45;;;10.10;50.60;;;;;;5046582;28;20132;-73
2021/04/26 08:41:31;;;;;;;2.60;1.95;;;10.20;50.30;;;;;;5049027;28;20512;-72
2021/04/26 08:43:57;;;;;;;3.35;2.05;;;10.20;50.30;;;;;;5049935;28;20436;-72
2021/04/26 08:46:22;;;;;;;8.15;3.40;;;10.20;50.80;;;;;;5049819;28;20020;-71
2021/04/26 08:48:48;;;;;;;5.63;2.55;;;10.30;51.20;;;;;;5049883;28;20021;-72
2021/04/26 08:51:14;;;;;;;5.65;2.53;;;10.50;50.40;;;;;;5050597;28;20020;-73
2021/04/26 08:53:39;;;;;;;4.78;2.45;;;10.50;49.10;;;;;;5051482;28;20543;-74
2021/04/26 08:56:07;;;;;;;6.38;2.72;;;10.50;49.60;;;;;;5050183;28;20135;-72
2021/04/26 08:58:33;;;;;;;9.98;2.90;;;10.60;50.50;;;;;;5050272;28;20032;-72
2021/04/26 09:00:58;;;;;;;4.28;2.83;;;10.70;51.00;;;;;;5050686;28;20021;-72
2021/04/26 09:03:31;;;;;;;7.50;2.65;;;10.80;50.20;;;;;;5046155;28;20453;-74
2021/04/26 09:05:57;;;;;;;5.82;2.92;;;10.80;48.90;;;;;;5043171;28;20033;-73
2021/04/26 09:08:24;;;;;;;4.18;2.38;;;10.80;49.20;;;;;;5035390;28;20029;-73
2021/04/26 09:10:53;;;;;;;3.67;2.55;;;10.80;49.10;;;;;;5053746;28;20021;-73
2021/04/26 09:13:41;;;;;;;4.63;2.80;;;10.80;49.60;;;;;;5051283;28;20082;-73
2021/04/26 09:16:22;;;;;;;4.00;2.50;;;10.90;49.40;;;;;;5055273;28;20029;-73
2021/04/26 09:18:56;;;;;;;5.20;3.00;;;10.90;48.70;;;;;;5053898;28;20368;-73
2021/04/26 09:21:34;;;;;;;5.60;2.42;;;11.00;48.00;;;;;;5053457;28;20350;-73
2021/04/26 09:24:25;;;;;;;7.95;3.10;;;11.00;48.90;;;;;;5053598;28;20048;-73
2021/04/26 09:27:14;;;;;;;6.93;2.40;;;11.20;48.30;;;;;;5044689;28;20068;-74
2021/04/26 09:29:41;;;;;;;7.03;3.10;;;11.20;47.70;;;;;;5049566;28;20021;-73
2021/04/26 09:32:18;;;;;;;4.60;2.70;;;11.20;47.30;;;;;;5055582;28;20017;-73
2021/04/26 09:34:48;;;;;;;7.43;2.78;;;11.30;47.60;;;;;;5053856;28;20104;-74
2021/04/26 09:37:22;;;;;;;7.32;2.50;;;11.30;48.40;;;;;;5055500;28;20309;-73
2021/04/26 09:40:12;;;;;;;6.80;2.55;;;11.40;48.00;;;;;;5054721;28;20103;-73
2021/04/26 09:42:46;;;;;;;5.82;2.45;;;11.50;49.60;;;;;;5053069;28;20041;-73
2021/04/26 09:45:44;;;;;;;4.82;2.75;;;11.50;48.40;;;;;;5055317;28;20025;-72
2021/04/26 09:48:21;;;;;;;4.05;2.58;;;11.60;49.00;;;;;;5039329;28;20057;-73
2021/04/26 09:50:50;;;;;;;4.53;2.50;;;11.70;48.40;;;;;;5034900;28;20021;-72
2021/04/26 09:53:16;;;;;;;5.75;2.20;;;11.70;46.50;;;;;;5033712;28;20021;-72
2021/04/26 09:55:42;;;;;;;4.88;2.20;;;11.80;47.40;;;;;;5033203;28;20346;-72
2021/04/26 09:58:09;;;;;;;4.57;2.78;;;11.80;47.10;;;;;;5033372;28;20029;-71
2021/04/26 10:00:35;;;;;;;4.85;2.50;;;11.90;46.40;;;;;;5033374;28;20028;-73
2021/04/26 10:03:02;;;;;;;5.20;2.85;;;11.90;45.60;;;;;;5033748;28;20026;-72
2021/04/26 10:05:28;;;;;;;4.43;2.50;;;12.00;47.10;;;;;;5053803;28;20120;-73
2021/04/26 10:07:55;;;;;;;4.32;2.17;;;12.00;45.80;;;;;;5052659;28;20124;-72
2021/04/26 10:10:20;;;;;;;3.80;2.30;;;12.10;45.80;;;;;;5071641;28;20376;-73
2021/04/26 10:12:46;;;;;;;4.32;2.13;;;12.10;46.60;;;;;;5074655;28;20029;-73
2021/04/26 10:15:12;;;;;;;6.53;2.75;;;12.10;46.20;;;;;;5073353;28;20487;-73
2021/04/26 10:17:41;;;;;;;7.13;2.42;;;12.30;46.30;;;;;;5055916;28;20029;-76
2021/04/26 10:20:07;;;;;;;5.35;2.35;;;12.20;45.10;;;;;;5053578;28;20031;-74
2021/04/26 10:22:34;;;;;;;5.38;2.67;;;12.30;45.20;;;;;;5034264;28;20472;-75
2021/04/26 10:25:00;;;;;;;6.35;2.17;;;12.40;44.60;;;;;;5034188;28;20021;-73
2021/04/26 10:27:40;;;;;;;5.22;2.35;;;12.50;46.60;;;;;;5033144;28;20029;-73
2021/04/26 10:30:14;;;;;;;9.07;2.53;;;12.50;45.10;;;;;;5034237;28;20074;-73
2021/04/26 10:32:54;;;;;;;5.95;2.45;;;12.60;45.30;;;;;;5031750;28;20477;-73
2021/04/26 10:35:21;;;;;;;7.22;2.90;;;12.60;45.00;;;;;;5034097;28;20017;-73
2021/04/26 10:37:47;;;;;;;5.35;2.10;;;12.70;46.60;;;;;;5031902;28;20034;-72
2021/04/26 10:40:19;;;;;;;8.05;2.40;;;12.70;44.80;;;;;;5051926;28;20025;-72
2021/04/26 10:42:47;;;;;;;5.85;2.45;;;12.80;46.50;;;;;;5051795;28;20025;-73
2021/04/26 10:45:12;;;;;;;3.60;2.03;;;12.90;45.60;;;;;;5053978;28;20028;-73
2021/04/26 10:47:41;;;;;;;3.90;2.05;;;12.90;46.20;;;;;;5052612;28;20389;-74
2021/04/26 10:50:06;;;;;;;4.85;2.17;;;13.00;45.50;;;;;;5052986;28;20017;-73
2021/04/26 10:52:36;;;;;;;7.57;3.22;;;13.10;46.10;;;;;;5053358;28;20092;-73
2021/04/26 10:55:11;;;;;;;4.47;2.65;;;13.10;43.90;;;;;;5052089;28;20021;-74
2021/04/26 10:57:47;;;;;;;6.50;2.40;;;13.20;44.00;;;;;;5052359;28;20021;-72
2021/04/26 11:00:32;;;;;;;5.53;2.58;;;13.20;44.10;;;;;;5050524;28;20036;-73
2021/04/26 11:03:07;;;;;;;3.92;2.60;;;13.30;44.60;;;;;;5047000;28;20032;-73
2021/04/26 11:05:40;;;;;;;5.68;2.35;;;13.40;45.00;;;;;;5050311;28;20021;-74
2021/04/26 11:08:11;;;;;;;4.90;2.33;;;13.40;44.00;;;;;;5051219;28;20052;-73
2021/04/26 11:10:40;;;;;;;5.25;2.50;;;13.40;44.00;;;;;;5049743;28;20059;-73
2021/04/26 11:13:27;;;;;;;3.47;2.30;;;13.50;44.00;;;;;;5052864;28;20064;-72
2021/04/26 11:16:13;;;;;;;7.68;2.42;;;13.50;44.60;;;;;;5065295;28;20024;-74
2021/04/26 11:18:59;;;;;;;3.83;2.17;;;13.70;43.80;;;;;;5067413;28;20033;-77
2021/04/26 11:21:43;;;;;;;3.92;1.90;;;13.80;44.40;;;;;;5034818;28;20376;-75
2021/04/26 11:24:33;;;;;;;3.80;2.30;;;13.90;44.60;;;;;;5051471;28;20025;-76
2021/04/26 11:27:11;;;;;;;4.15;1.80;;;14.00;44.40;;;;;;5051070;28;20694;-75
2021/04/26 11:29:47;;;;;;;3.65;1.92;;;14.10;44.70;;;;;;5050768;28;20033;-75
2021/04/26 11:32:16;;;;;;;5.28;2.10;;;14.20;43.10;;;;;;5053405;28;20074;-74
2021/04/26 11:34:48;;;;;;;6.82;2.22;;;14.30;43.60;;;;;;5052262;28;20020;-75
2021/04/26 11:37:23;;;;;;;;;;;14.40;44.40;;;;;;5052507;28;20112;-75
2021/04/26 11:39:53;;;;;;;4.15;1.92;;;14.50;43.20;;;;;;5051002;28;19916;-75
2021/04/26 11:42:21;;;;;;;3.60;1.83;;;14.50;43.60;;;;;;5051431;28;20450;-75
2021/04/26 11:44:48;;;;;;;5.45;2.15;;;14.60;42.70;;;;;;5050408;28;20025;-75
2021/04/26 11:47:16;;;;;;;3.65;2.10;;;14.70;43.60;;;;;;5051192;28;20032;-74
2021/04/26 11:49:46;;;;;;;3.58;1.50;;;14.80;42.80;;;;;;5050125;28;20461;-75
2021/04/26 11:52:15;;;;;;;5.20;1.95;;;14.80;41.00;;;;;;5048684;28;20037;-74
2021/04/26 11:54:45;;;;;;;3.53;1.90;;;14.90;40.80;;;;;;5051596;28;20021;-75
2021/04/26 11:57:20;;;;;;;4.65;2.00;;;14.90;41.30;;;;;;5050967;28;20507;-75
2021/04/26 11:59:53;;;;;;;3.88;1.92;;;15.00;41.50;;;;;;5048093;28;20072;-75
2021/04/26 12:02:30;;;;;;;3.38;1.88;;;15.10;40.00;;;;;;5052144;28;20429;-74
2021/04/26 12:05:02;;;;;;;4.43;2.00;;;15.30;40.20;;;;;;5050309;28;20033;-74
2021/04/26 12:07:28;;;;;;;5.05;2.10;;;15.40;39.70;;;;;;5050735;28;20123;-76
2021/04/26 12:09:58;;;;;;;4.70;2.33;;;15.50;39.70;;;;;;5049826;28;20124;-73
2021/04/26 12:12:27;;;;;;;5.97;2.22;;;15.60;40.90;;;;;;5051712;28;20423;-73
2021/04/26 12:14:53;;;;;;;4.53;2.05;;;15.80;40.90;;;;;;5050835;28;20107;-73
2021/04/26 12:17:24;;;;;;;3.75;1.75;;;16.00;38.60;;;;;;5051600;28;20509;-74
2021/04/26 12:19:51;;;;;;;4.30;1.90;;;16.10;38.60;;;;;;5049505;28;20017;-73
2021/04/26 12:22:20;;;;;;;4.45;1.40;;;16.20;39.00;;;;;;5049867;28;20603;-73
2021/04/26 12:24:46;;;;;;;4.13;1.88;;;16.30;38.90;;;;;;5049337;28;20472;-73
2021/04/26 12:27:15;;;;;;;5.50;1.65;;;16.50;37.50;;;;;;5050307;28;20029;-74
2021/04/26 12:29:41;;;;;;;3.00;1.50;;;16.60;36.60;;;;;;5049893;28;20035;-74
2021/04/26 12:32:11;;;;;;;2.78;1.50;;;16.70;36.60;;;;;;5050787;28;20025;-73
2021/04/26 12:34:49;;;;;;;2.67;1.80;;;16.80;35.90;;;;;;5050188;28;20056;-73
2021/04/26 12:37:21;;;;;;;2.80;1.60;;;17.00;33.30;;;;;;5050917;28;20309;-73
2021/04/26 12:39:48;;;;;;;3.67;1.52;;;17.10;34.60;;;;;;5058003;28;20546;-74
2021/04/26 12:42:16;;;;;;;4.38;1.30;;;17.30;33.30;;;;;;5051555;28;20032;-73
2021/04/26 12:44:43;;;;;;;4.90;1.60;;;17.40;33.20;;;;;;5049320;28;20025;-73
2021/04/26 12:47:24;;;;;;;4.72;1.67;;;17.50;32.10;;;;;;5050021;28;20457;-74
2021/04/26 12:50:14;;;;;;;2.53;1.60;;;17.60;32.10;;;;;;5048840;28;20453;-73
2021/04/26 12:52:40;;;;;;;7.03;1.77;;;17.80;34.20;;;;;;5042216;28;20051;-73
2021/04/26 12:55:11;;;;;;;3.88;1.65;;;17.90;33.90;;;;;;5049123;28;20086;-74
2021/04/26 12:57:39;;;;;;;2.17;1.30;;;18.10;33.10;;;;;;5050466;28;20033;-74
2021/04/26 13:00:09;;;;;;;3.78;1.70;;;18.30;32.90;;;;;;5050537;28;20024;-72
2021/04/26 13:02:35;;;;;;;2.67;1.48;;;18.40;31.90;;;;;;5049824;28;20468;-73
2021/04/26 13:05:01;;;;;;;2.50;1.52;;;18.50;31.00;;;;;;5050138;28;20025;-72
2021/04/26 13:07:27;;;;;;;3.63;1.90;;;18.60;31.80;;;;;;5050084;28;20420;-73
2021/04/26 13:10:10;;;;;;;4.28;1.33;;;18.60;30.00;;;;;;5063242;28;20024;-73
2021/04/26 13:12:36;;;;;;;3.30;1.45;;;18.70;30.30;;;;;;5070121;28;20051;-73
2021/04/26 13:15:28;;;;;;;2.92;1.40;;;19.00;31.50;;;;;;5055616;28;20044;-73
2021/04/26 13:18:14;;;;;;;2.50;1.48;;;19.30;32.10;;;;;;5051477;28;20036;-73
2021/04/26 13:20:42;;;;;;;3.45;1.85;;;19.60;29.40;;;;;;5051693;28;20052;-73
2021/04/26 13:23:19;;;;;;;2.28;1.40;;;20.00;29.50;;;;;;5050147;28;20033;-74
2021/04/26 13:25:46;;;;;;;3.67;1.40;;;20.60;28.20;;;;;;5049748;28;20028;-75
2021/04/26 13:28:25;;;;;;;3.08;1.77;;;21.10;28.00;;;;;;5051479;28;20075;-75
2021/04/26 13:30:53;;;;;;;2.45;1.73;;;21.30;28.90;;;;;;5050107;28;20091;-75
2021/04/26 13:33:19;;;;;;;5.80;1.60;;;21.70;28.10;;;;;;5050739;28;20481;-75
2021/04/26 13:35:44;;;;;;;2.00;1.50;;;22.10;26.90;;;;;;5049135;28;20192;-74
2021/04/26 13:38:10;;;;;;;3.40;1.48;;;22.20;26.60;;;;;;5047154;28;20473;-73
2021/04/26 13:40:36;;;;;;;1.98;1.45;;;22.50;26.90;;;;;;5023178;28;20342;-74
2021/04/26 13:43:02;;;;;;;3.08;1.45;;;22.70;26.30;;;;;;5037200;28;20455;-73
2021/04/26 13:45:27;;;;;;;2.90;1.70;;;22.80;25.80;;;;;;5031187;28;20096;-74
2021/04/26 13:47:53;;;;;;;3.20;1.33;;;22.70;24.90;;;;;;5031185;28;20033;-73
2021/04/26 13:50:19;;;;;;;1.95;1.38;;;22.70;25.50;;;;;;5013446;28;20464;-73
2021/04/26 13:52:44;;;;;;;3.17;1.52;;;22.60;26.20;;;;;;5012222;28;20056;-77
2021/04/26 13:55:10;;;;;;;2.38;1.50;;;22.70;25.50;;;;;;5000594;28;20469;-78
2021/04/26 13:57:37;;;;;;;2.30;1.40;;;22.50;25.90;;;;;;5016921;28;20036;-73
2021/04/26 14:00:06;;;;;;;5.90;3.92;;;22.10;26.30;;;;;;5016489;28;20052;-77
2021/04/26 14:02:32;;;;;;;14.95;8.93;;;21.80;27.80;;;;;;5024559;28;20017;-73
2021/04/26 14:04:58;;;;;;;5.93;3.35;;;21.60;27.10;;;;;;5048754;28;20025;-74
2021/04/26 14:07:23;;;;;;;1.92;1.42;;;21.50;27.40;;;;;;5022039;28;20057;-74
2021/04/26 14:09:49;;;;;;;6.32;3.13;;;21.30;26.50;;;;;;5034196;28;20037;-74
2021/04/26 14:12:15;;;;;;;2.25;1.80;;;21.20;26.90;;;;;;5015850;28;20453;-73
2021/04/26 14:14:43;;;;;;;3.20;2.10;;;21.10;26.40;;;;;;5016355;28;20032;-74
2021/04/26 14:17:10;;;;;;;4.75;1.80;;;21.00;27.80;;;;;;5015966;28;20021;-74
2021/04/26 14:19:35;;;;;;;4.25;1.50;;;20.70;26.80;;;;;;5034787;28;20026;-74
2021/04/26 14:22:01;;;;;;;4.57;1.45;;;20.50;26.80;;;;;;5033357;28;20018;-75
2021/04/26 14:24:27;;;;;;;1.55;1.20;;;20.30;28.00;;;;;;5021989;28;20022;-75
2021/04/26 14:26:54;;;;;;;2.42;1.30;;;20.30;28.10;;;;;;5028844;28;20024;-75
2021/04/26 14:29:19;;;;;;;1.42;1.13;;;20.20;28.10;;;;;;5033012;28;20021;-74
2021/04/26 14:31:45;;;;;;;2.33;1.30;;;20.10;28.40;;;;;;5017157;28;20021;-73
2021/04/26 14:34:11;;;;;;;1.92;1.38;;;19.90;27.50;;;;;;5016112;28;20021;-74
2021/04/26 14:36:38;;;;;;;2.60;1.30;;;19.80;28.40;;;;;;5020260;28;20079;-75
2021/04/26 14:39:04;;;;;;;6.97;1.20;;;19.70;28.00;;;;;;5023655;28;20136;-73
2021/04/26 14:41:30;;;;;;;2.80;1.45;;;19.60;28.40;;;;;;5052849;28;20032;-74
2021/04/26 14:43:56;;;;;;;1.92;1.50;;;19.70;29.30;;;;;;5053249;28;20013;-73
2021/04/26 14:46:21;;;;;;;5.90;1.40;;;19.70;28.40;;;;;;5052334;28;20024;-73
2021/04/26 14:48:47;;;;;;;3.25;1.20;;;19.60;27.70;;;;;;5051846;28;20120;-74
2021/04/26 14:51:13;;;;;;;3.30;1.30;;;19.60;28.20;;;;;;5052166;28;20052;-75
2021/04/26 14:53:39;;;;;;;2.65;1.38;;;19.50;27.70;;;;;;5053818;28;20460;-74
2021/04/26 14:56:05;;;;;;;8.15;4.63;;;19.30;26.80;;;;;;5051642;28;20025;-74
2021/04/26 14:58:31;;;;;;;8.93;4.70;;;19.10;27.00;;;;;;5051977;28;20025;-75
2021/04/26 15:00:57;;;;;;;4.70;2.20;;;19.00;27.80;;;;;;5052494;28;20025;-74
2021/04/26 15:03:22;;;;;;;3.28;1.40;;;19.00;28.00;;;;;;5035523;28;20092;-75
2021/04/26 15:05:48;;;;;;;2.00;1.30;;;19.00;27.80;;;;;;5052145;28;20071;-75
2021/04/26 15:08:14;;;;;;;3.95;1.25;;;19.00;28.40;;;;;;5052877;28;20032;-74
2021/04/26 15:10:39;;;;;;;3.08;1.50;;;18.90;28.10;;;;;;5071938;28;20028;-74
2021/04/26 15:13:06;;;;;;;3.10;1.20;;;18.90;28.90;;;;;;5070650;28;20514;-74
2021/04/26 15:15:32;;;;;;;3.15;1.38;;;19.00;28.50;;;;;;5072410;28;20070;-74
2021/04/26 15:17:57;;;;;;;1.77;1.40;;;19.00;28.10;;;;;;5072724;28;20024;-74
2021/04/26 15:20:23;;;;;;;2.88;1.38;;;19.00;28.10;;;;;;5072078;28;20032;-74
2021/04/26 15:22:49;;;;;;;1.90;1.50;;;19.10;27.90;;;;;;5071407;28;20099;-74
2021/04/26 15:25:15;;;;;;;2.55;1.15;;;19.20;28.30;;;;;;5055521;28;20039;-73
2021/04/26 15:27:41;;;;;;;2.88;1.35;;;19.40;27.80;;;;;;5071654;28;20028;-74
2021/04/26 15:30:07;;;;;;;1.77;1.25;;;19.60;28.30;;;;;;5071324;28;20281;-75
2021/04/26 15:32:33;;;;;;;2.35;1.45;;;19.80;27.30;;;;;;5070300;28;20020;-75
2021/04/26 15:34:59;;;;;;;1.98;1.42;;;20.10;27.50;;;;;;5054320;28;20453;-75
2021/04/26 15:37:25;;;;;;;2.72;1.30;;;20.40;27.40;;;;;;5051375;28;20021;-75
2021/04/26 15:39:51;;;;;;;2.80;1.30;;;21.30;26.20;;;;;;5056967;28;20552;-75
2021/04/26 15:42:16;;;;;;;2.50;1.17;;;22.40;25.70;;;;;;5051407;28;20111;-74
2021/04/26 15:44:45;;;;;;;1.70;1.17;;;23.40;25.00;;;;;;5051865;28;20116;-74
2021/04/26 15:47:12;;;;;;;3.05;1.30;;;24.00;24.50;;;;;;5051288;28;20071;-73
2021/04/26 15:49:37;;;;;;;1.40;1.10;;;23.50;24.60;;;;;;5050897;28;20032;-74
2021/04/26 15:52:09;;;;;;;2.03;1.55;;;23.10;25.60;;;;;;5050597;28;20025;-75
2021/04/26 15:54:35;;;;;;;1.52;1.00;;;22.70;25.40;;;;;;5051732;28;20036;-73
2021/04/26 15:57:01;;;;;;;2.63;1.30;;;22.20;25.40;;;;;;5050583;28;20386;-72
2021/04/26 15:59:27;;;;;;;0.98;0.80;;;21.80;26.00;;;;;;5052970;28;20020;-74
2021/04/26 16:01:53;;;;;;;3.72;1.33;;;21.60;26.60;;;;;;5051573;28;20019;-74
2021/04/26 16:04:20;;;;;;;3.38;1.10;;;21.60;26.20;;;;;;5052729;28;20021;-72
2021/04/26 16:06:47;;;;;;;1.90;1.35;;;21.60;26.20;;;;;;5051034;28;20017;-73
2021/04/26 16:09:12;;;;;;;3.47;1.20;;;21.70;26.10;;;;;;5060054;28;20031;-73
2021/04/26 16:11:39;;;;;;;2.17;1.13;;;21.70;26.70;;;;;;5070517;28;20028;-73
2021/04/26 16:14:05;;;;;;;1.30;1.00;;;21.60;26.60;;;;;;5071563;28;20426;-72
2021/04/26 16:16:32;;;;;;;2.88;0.95;;;21.50;26.50;;;;;;5070278;28;20457;-73
2021/04/26 16:18:58;;;;;;;2.92;1.13;;;21.40;25.40;;;;;;5071318;28;20058;-73
2021/04/26 16:21:23;;;;;;;1.30;1.02;;;21.40;25.10;;;;;;5051286;28;20025;-72
2021/04/26 16:23:49;;;;;;;1.95;1.20;;;21.30;24.60;;;;;;5050224;28;20541;-73
2021/04/26 16:26:15;;;;;;;0.93;0.73;;;21.10;24.20;;;;;;5051156;28;20473;-73
2021/04/26 16:28:42;;;;;;;1.35;0.90;;;21.00;25.10;;;;;;5050733;28;20029;-72
2021/04/26 16:31:08;;;;;;;1.77;1.17;;;20.90;25.30;;;;;;5050307;28;20050;-73
2021/04/26 16:33:34;;;;;;;2.35;1.15;;;20.80;25.30;;;;;;5049986;28;20031;-73
2021/04/26 16:35:59;;;;;;;1.52;0.98;;;20.60;25.60;;;;;;5050200;28;20112;-74
2021/04/26 16:38:25;;;;;;;2.08;1.05;;;20.50;26.10;;;;;;5052868;28;20053;-73
2021/04/26 16:40:51;;;;;;;1.98;1.20;;;20.40;26.10;;;;;;5070568;28;20111;-73
2021/04/26 16:43:17;;;;;;;2.45;0.95;;;20.30;26.30;;;;;;5070914;28;20506;-73
2021/04/26 16:45:43;;;;;;;2.60;1.10;;;20.20;26.30;;;;;;5052268;28;20112;-73
2021/04/26 16:48:09;;;;;;;1.70;1.02;;;20.20;26.00;;;;;;5040527;28;20385;-73
2021/04/26 16:50:35;;;;;;;28.33;14.05;;;20.20;26.60;;;;;;5050930;28;20128;-71
2021/04/26 16:53:02;;;;;;;3.30;2.00;;;20.20;26.40;;;;;;5050595;28;20112;-72
2021/04/26 16:55:30;;;;;;;1.70;1.30;;;20.10;25.60;;;;;;5050034;28;20029;-73
2021/04/26 16:57:55;;;;;;;1.70;1.27;;;20.00;25.40;;;;;;5050681;28;20037;-73
2021/04/26 17:00:21;;;;;;;3.20;1.42;;;19.80;25.40;;;;;;5051466;28;20029;-72
2021/04/26 17:02:49;;;;;;;2.08;1.35;;;19.70;26.00;;;;;;5051566;28;20017;-76
2021/04/26 17:05:15;;;;;;;1.73;0.82;;;19.80;26.80;;;;;;5054114;28;20032;-72
2021/04/26 17:07:41;;;;;;;2.17;1.00;;;19.80;26.90;;;;;;5051751;28;20025;-73
2021/04/26 17:10:09;;;;;;;13.38;8.00;;;19.60;27.30;;;;;;5058535;28;20108;-72
2021/04/26 17:12:35;;;;;;;12.15;5.85;;;19.50;27.30;;;;;;5033265;28;20029;-73
2021/04/26 17:15:03;;;;;;;9.05;5.85;;;19.40;26.50;;;;;;5050068;28;20024;-72
2021/04/26 17:17:28;;;;;;;1.70;1.33;;;19.30;27.50;;;;;;5048807;28;20029;-72
2021/04/26 17:19:54;;;;;;;1.20;0.95;;;19.10;27.30;;;;;;5049446;28;20029;-73
2021/04/26 17:22:21;;;;;;;2.67;1.20;;;19.00;27.30;;;;;;5051907;28;20020;-74
2021/04/26 17:24:49;;;;;;;1.25;0.88;;;18.90;27.70;;;;;;5050441;28;20036;-73
2021/04/26 17:27:16;;;;;;;1.70;0.80;;;18.80;28.10;;;;;;5050705;28;20032;-75
2021/04/26 17:29:42;;;;;;;1.10;0.70;;;18.60;28.00;;;;;;5053739;28;20476;-73
2021/04/26 17:32:08;;;;;;;6.07;3.17;;;18.60;27.80;;;;;;5054894;28;20240;-74
2021/04/26 17:34:35;;;;;;;6.10;3.20;;;18.70;27.50;;;;;;5053603;28;20473;-74
2021/04/26 17:37:01;;;;;;;7.65;4.40;;;18.60;27.60;;;;;;5054981;28;20024;-74
2021/04/26 17:39:27;;;;;;;2.40;1.30;;;18.40;27.80;;;;;;5064377;28;20052;-74
2021/04/26 17:41:52;;;;;;;1.83;1.15;;;18.30;28.00;;;;;;5073117;28;20025;-74
2021/04/26 17:44:18;;;;;;;1.15;0.90;;;18.20;28.00;;;;;;5075340;28;20115;-73
2021/04/26 17:46:44;;;;;;;2.20;0.88;;;18.10;28.40;;;;;;5056767;28;20025;-74
2021/04/26 17:49:12;;;;;;;1.67;0.82;;;18.00;28.30;;;;;;5053361;28;20115;-75
2021/04/26 17:51:38;;;;;;;1.00;0.80;;;17.90;28.50;;;;;;5055143;28;20100;-73
2021/04/26 17:54:03;;;;;;;2.92;0.80;;;17.70;29.20;;;;;;5053861;28;20521;-74
2021/04/26 17:56:31;;;;;;;1.50;0.80;;;17.60;28.70;;;;;;5053476;28;20507;-74
2021/04/26 17:58:58;;;;;;;1.85;0.63;;;17.40;28.60;;;;;;5054460;28;20120;-74
2021/04/26 18:01:24;;;;;;;5.07;1.00;;;17.30;28.50;;;;;;5053560;28;20025;-73
2021/04/26 18:03:51;;;;;;;1.25;0.90;;;17.20;28.90;;;;;;5055940;28;20017;-75
2021/04/26 18:06:17;;;;;;;3.47;1.17;;;17.10;29.00;;;;;;5053750;28;20029;-74
2021/04/26 18:08:42;;;;;;;2.15;1.00;;;17.00;28.80;;;;;;5053434;28;20095;-75
2021/04/26 18:11:10;;;;;;;1.50;0.93;;;16.90;29.40;;;;;;5052409;28;20112;-74
2021/04/26 18:13:35;;;;;;;1.63;0.75;;;16.80;29.50;;;;;;5052786;28;20024;-74
2021/04/26 18:16:02;;;;;;;1.63;0.70;;;16.70;29.60;;;;;;5053911;28;20075;-74
2021/04/26 18:18:27;;;;;;;1.20;0.90;;;16.60;29.90;;;;;;5055489;28;20036;-74
2021/04/26 18:20:56;;;;;;;1.65;1.15;;;16.50;30.30;;;;;;5053860;28;20389;-74
2021/04/26 18:23:22;;;;;;;1.60;0.73;;;16.40;30.20;;;;;;5036575;28;20029;-73
2021/04/26 18:25:47;;;;;;;4.80;0.80;;;16.30;30.40;;;;;;5053111;28;20439;-74
2021/04/26 18:28:14;;;;;;;1.70;0.90;;;16.10;30.20;;;;;;5054269;28;20032;-75
2021/04/26 18:30:40;;;;;;;1.08;0.63;;;16.00;30.30;;;;;;5053255;28;20051;-75
2021/04/26 18:33:05;;;;;;;1.17;0.70;;;16.00;30.30;;;;;;5050659;28;20377;-76
2021/04/26 18:35:31;;;;;;;2.42;0.60;;;15.90;30.70;;;;;;5038404;28;20025;-73
2021/04/26 18:37:57;;;;;;;1.20;0.50;;;15.70;30.70;;;;;;5034317;28;20054;-73
2021/04/26 18:40:22;;;;;;;0.98;0.68;;;15.70;31.40;;;;;;5069123;28;20108;-73
2021/04/26 18:42:48;;;;;;;1.98;0.73;;;15.60;31.10;;;;;;5049830;28;20370;-73
2021/04/26 18:45:16;;;;;;;5.28;1.05;;;15.60;31.20;;;;;;5033048;28;20098;-74
2021/04/26 18:47:42;;;;;;;2.38;0.75;;;15.50;31.00;;;;;;5033042;28;20032;-75
2021/04/26 18:50:09;;;;;;;3.08;0.80;;;15.40;31.30;;;;;;5033475;28;20025;-74
2021/04/26 18:52:36;;;;;;;1.48;0.60;;;15.30;31.80;;;;;;5033112;28;20037;-75
2021/04/26 18:55:03;;;;;;;1.52;0.90;;;15.30;31.60;;;;;;5032209;28;20025;-74
2021/04/26 18:57:29;;;;;;;1.65;0.60;;;15.20;31.80;;;;;;5016252;28;20052;-73
2021/04/26 18:59:55;;;;;;;1.80;0.90;;;15.10;31.70;;;;;;5032082;28;20425;-74
2021/04/26 19:02:20;;;;;;;1.70;0.65;;;15.00;31.70;;;;;;5032749;28;20022;-73
2021/04/26 19:04:46;;;;;;;1.65;0.80;;;14.90;32.30;;;;;;5048331;28;20028;-74
2021/04/26 19:07:13;;;;;;;2.60;0.90;;;14.80;32.20;;;;;;5053562;28;20029;-74
2021/04/26 19:09:39;;;;;;;0.95;0.68;;;14.70;32.70;;;;;;5051997;28;20052;-74
2021/04/26 19:12:06;;;;;;;1.77;0.90;;;14.60;32.60;;;;;;5051906;28;20473;-75
2021/04/26 19:14:37;;;;;;;2.22;0.90;;;14.60;33.00;;;;;;5052055;28;20445;-74
2021/04/26 19:17:03;;;;;;;1.92;0.68;;;14.50;32.90;;;;;;5052158;28;20021;-74
2021/04/26 19:19:29;;;;;;;2.25;0.77;;;14.40;33.20;;;;;;5053366;28;20057;-74
2021/04/26 19:21:54;;;;;;;1.80;0.80;;;14.30;33.70;;;;;;5035481;28;20035;-74
2021/04/26 19:24:20;;;;;;;2.08;0.70;;;14.30;33.70;;;;;;5051930;28;20458;-75
2021/04/26 19:26:46;;;;;;;2.80;0.88;;;14.10;33.60;;;;;;5051924;28;20029;-74
2021/04/26 19:29:13;;;;;;;4.70;0.90;;;14.10;34.00;;;;;;5051701;28;20033;-74
2021/04/26 19:31:40;;;;;;;2.83;0.88;;;14.00;34.00;;;;;;5052224;28;20024;-74
2021/04/26 19:34:06;;;;;;;3.65;1.13;;;13.90;33.90;;;;;;5059722;28;20055;-73
2021/04/26 19:36:32;;;;;;;1.23;0.80;;;13.80;34.90;;;;;;5071962;28;20345;-74
2021/04/26 19:38:58;;;;;;;3.85;1.10;;;13.80;34.60;;;;;;5070383;28;20063;-75
2021/04/26 19:41:24;;;;;;;3.15;1.00;;;13.80;34.60;;;;;;5073173;28;20016;-73
2021/04/26 19:43:50;;;;;;;2.50;0.90;;;13.80;34.90;;;;;;5072059;28;20020;-75
2021/04/26 19:46:15;;;;;;;2.38;0.88;;;13.70;34.80;;;;;;5072904;28;20448;-75
2021/04/26 19:48:41;;;;;;;1.67;0.70;;;13.60;35.30;;;;;;5071954;28;20059;-74
2021/04/26 19:51:07;;;;;;;1.60;0.70;;;13.50;34.80;;;;;;5070951;28;20030;-75
2021/04/26 19:53:33;;;;;;;2.78;0.70;;;13.60;34.50;;;;;;5072015;28;20024;-74
2021/04/26 19:55:59;;;;;;;3.95;0.95;;;13.50;35.00;;;;;;5070117;28;20024;-74
2021/04/26 19:58:25;;;;;;;0.90;0.60;;;13.50;35.30;;;;;;5071376;28;20030;-75
2021/04/26 20:00:51;;;;;;;1.00;0.63;;;13.40;35.10;;;;;;5070565;28;20052;-75
2021/04/26 20:03:18;;;;;;;1.42;0.60;;;13.40;34.60;;;;;;5068499;28;20017;-73
2021/04/26 20:05:43;;;;;;;0.70;0.60;;;13.40;34.10;;;;;;5051909;28;20418;-73
2021/04/26 20:08:10;;;;;;;1.00;0.80;;;13.30;34.30;;;;;;5052301;28;20086;-74
2021/04/26 20:10:37;;;;;;;2.35;0.60;;;13.30;33.60;;;;;;5071144;28;20051;-76
2021/04/26 20:13:04;;;;;;;3.42;0.88;;;13.30;34.20;;;;;;5070915;28;20017;-74
2021/04/26 20:15:30;;;;;;;2.03;0.60;;;13.20;33.90;;;;;;5070873;28;20369;-74
2021/04/26 20:17:56;;;;;;;1.13;0.60;;;13.10;34.50;;;;;;5070626;28;20025;-75
2021/04/26 20:20:22;;;;;;;2.50;0.60;;;13.00;34.50;;;;;;5070617;28;20482;-73
2021/04/26 20:22:49;;;;;;;1.48;0.70;;;12.90;35.10;;;;;;5072076;28;20024;-74
2021/04/26 20:25:16;;;;;;;2.30;0.80;;;13.00;34.20;;;;;;5070508;28;20260;-74
2021/04/26 20:27:42;;;;;;;1.45;0.75;;;13.00;34.10;;;;;;5071561;28;20472;-75
2021/04/26 20:30:10;;;;;;;2.78;0.90;;;12.90;34.30;;;;;;5070653;28;20059;-77